TimeCDT,TemperatureF,Dew PointF,Humidity,Sea Level PressureIn,VisibilityMPH,Wind Direction,Wind SpeedMPH,Gust SpeedMPH,PrecipitationIn,Events,Conditions,WindDirDegrees,DateUTC
12:15 AM,34.0,29.7,84,30.04,5.0,North,32.2,39.1,N/A,,Haze,360,2013-04-23 05:15:00
12:35 AM,32.2,29.3,89,30.04,3.0,North,29.9,42.6,N/A,,Overcast,10,2013-04-23 05:35:00
12:55 AM,32.0,29.1,89,30.05,3.0,NNE,25.3,36.8,N/A,,Overcast,20,2013-04-23 05:55:00
1:15 AM,32.0,29.5,90,30.05,2.5,North,26.5,33.4,N/A,,Overcast,10,2013-04-23 06:15:00
1:35 AM,31.5,29.1,91,30.07,3.0,North,23.0,29.9,N/A,,Overcast,10,2013-04-23 06:35:00
1:55 AM,30.9,28.8,92,30.08,2.5,North,21.9,32.2,N/A,,Overcast,10,2013-04-23 06:55:00
2:15 AM,30.7,28.4,91,30.08,2.5,North,19.6,28.8,N/A,,Overcast,360,2013-04-23 07:15:00
2:55 AM,29.8,27.5,91,30.07,2.5,North,18.4,26.5,N/A,,Overcast,360,2013-04-23 07:55:00
3:15 AM,30.0,28.0,92,30.07,2.5,North,18.4,23.0,N/A,,Overcast,360,2013-04-23 08:15:00
3:35 AM,29.8,27.7,92,30.07,2.5,North,19.6,26.5,N/A,,Overcast,360,2013-04-23 08:35:00
3:55 AM,29.5,27.5,92,30.08,2.5,North,16.1,24.2,N/A,,Overcast,360,2013-04-23 08:55:00
5:15 AM,28.8,26.4,91,30.10,3.0,Calm,Calm,-,N/A,,Unknown,0,2013-04-23 10:15:00
5:35 AM,28.2,25.7,90,30.11,4.0,Calm,Calm,-,N/A,,Overcast,0,2013-04-23 10:35:00
5:55 AM,28.0,25.7,91,30.10,4.0,Calm,Calm,-,N/A,,Overcast,0,2013-04-23 10:55:00
6:15 AM,27.9,25.3,90,30.10,4.0,Calm,Calm,-,N/A,,Overcast,0,2013-04-23 11:15:00
6:35 AM,27.5,24.8,90,30.10,-9999.0,Calm,Calm,-,N/A,,Unknown,0,2013-04-23 11:35:00
6:55 AM,27.5,25.5,92,30.11,4.0,Calm,Calm,-,N/A,,Mist,0,2013-04-23 11:55:00
7:15 AM,27.1,24.6,90,30.11,4.0,Calm,Calm,-,N/A,,Overcast,0,2013-04-23 12:15:00
7:35 AM,27.3,24.8,90,30.13,4.0,Calm,Calm,-,N/A,,Overcast,0,2013-04-23 12:35:00
8:55 AM,-9999,-9999,N/A,30.17,-9999.0,Calm,Calm,-,N/A,,Unknown,0,2013-04-23 13:55:00
1:15 PM,29.3,25.7,86,30.18,10.0,Calm,Calm,-,N/A,,Unknown,0,2013-04-23 18:15:00
1:35 PM,29.8,26.2,86,30.17,10.0,Calm,Calm,-,N/A,,Overcast,0,2013-04-23 18:35:00
1:55 PM,29.8,26.2,86,30.18,10.0,Calm,Calm,-,N/A,,Overcast,0,2013-04-23 18:55:00
2:15 PM,29.7,26.1,86,30.17,10.0,Calm,Calm,-,N/A,,Overcast,0,2013-04-23 19:15:00
2:35 PM,29.5,26.2,88,30.17,10.0,Calm,Calm,-,N/A,,Overcast,0,2013-04-23 19:35:00
2:55 PM,30.0,26.1,85,30.16,10.0,Calm,Calm,-,N/A,,Overcast,0,2013-04-23 19:55:00
3:15 PM,30.2,26.2,85,30.17,10.0,Calm,Calm,-,N/A,,Overcast,0,2013-04-23 20:15:00
3:35 PM,30.2,26.2,85,30.16,10.0,Calm,Calm,-,N/A,,Overcast,0,2013-04-23 20:35:00
3:55 PM,30.0,25.9,85,30.16,10.0,Calm,Calm,-,N/A,,Overcast,0,2013-04-23 20:55:00
4:15 PM,30.4,26.2,85,30.15,10.0,Calm,Calm,-,N/A,,Overcast,0,2013-04-23 21:15:00
4:35 PM,30.2,25.9,84,30.15,10.0,Calm,Calm,-,N/A,,Overcast,0,2013-04-23 21:35:00
4:55 PM,29.8,25.5,84,30.15,10.0,Calm,Calm,-,N/A,,Overcast,0,2013-04-23 21:55:00
5:55 PM,29.8,24.8,81,30.15,10.0,Calm,Calm,-,N/A,,Unknown,0,2013-04-23 22:55:00
6:15 PM,29.7,24.8,82,30.16,10.0,Calm,Calm,-,N/A,,Overcast,0,2013-04-23 23:15:00
6:35 PM,29.3,24.4,82,30.18,10.0,Calm,Calm,-,N/A,,Overcast,0,2013-04-23 23:35:00
6:55 PM,29.3,24.4,82,30.19,10.0,Calm,Calm,-,N/A,,Overcast,0,2013-04-23 23:55:00
7:15 PM,29.5,24.4,81,30.19,10.0,Calm,Calm,-,N/A,,Overcast,0,2013-04-24 00:15:00
7:35 PM,29.7,24.4,81,30.19,10.0,Calm,Calm,-,N/A,,Overcast,0,2013-04-24 00:35:00
7:55 PM,29.5,23.7,79,30.18,10.0,Calm,Calm,-,N/A,,Overcast,0,2013-04-24 00:55:00
8:15 PM,28.8,23.5,81,30.21,10.0,Calm,Calm,-,N/A,,Mostly Cloudy,0,2013-04-24 01:15:00
8:35 PM,29.1,23.9,81,30.21,10.0,Calm,Calm,-,N/A,,Overcast,0,2013-04-24 01:35:00
8:55 PM,28.6,23.9,83,30.23,10.0,Calm,Calm,-,N/A,,Overcast,0,2013-04-24 01:55:00
9:15 PM,29.1,24.3,82,30.25,10.0,Calm,Calm,-,N/A,,Overcast,0,2013-04-24 02:15:00
9:35 PM,29.1,24.1,81,30.26,7.0,Calm,Calm,-,N/A,Snow,Light Snow,0,2013-04-24 02:35:00
9:55 PM,28.4,24.8,86,30.27,4.0,Calm,Calm,-,N/A,Snow,Light Snow,0,2013-04-24 02:55:00
10:15 PM,27.5,24.8,90,30.28,7.0,Calm,Calm,-,N/A,Snow,Light Snow,0,2013-04-24 03:15:00
10:35 PM,27.1,24.8,91,30.28,10.0,Calm,Calm,-,N/A,,Scattered Clouds,0,2013-04-24 03:35:00
10:55 PM,27.0,24.8,92,30.28,7.0,Calm,Calm,-,N/A,,Scattered Clouds,0,2013-04-24 03:55:00
11:15 PM,26.4,24.4,92,30.29,7.0,Calm,Calm,-,N/A,,Clear,0,2013-04-24 04:15:00
11:35 PM,25.7,23.7,92,30.29,7.0,Calm,Calm,-,N/A,,Clear,0,2013-04-24 04:35:00
11:55 PM,25.2,23.0,91,30.29,7.0,Calm,Calm,-,N/A,,Clear,0,2013-04-24 04:55:00